Terminal Aerodrome Forecast
Issued by NWS Charleston, SC

Home | Current Version | Previous Version | Text Only | Print | Product List | Glossary On
Versions: 1 2 3 4 5 6 7 8 9 10 11 12 13 14 15 16 17 18 19
000
FTUS42 KCHS 031738
TAFSAV
TAF
KSAV 031738Z 0318/0418 12009KT P6SM VCTS SCT025CB BKN050
      TEMPO 0318/0321 VRB10G20KT 2SM +TSRA SCT008 BKN025CB
     FM040200 VRB02KT P6SM SCT015 BKN100
     FM041200 04005KT P6SM BKN035=

USA.gov is the U.S. government's official web portal to all federal, state and local government web resources and services.